createdAt,value
2024-02-22T00:01:53.888Z,14.20
2024-02-22T00:04:26.488Z,13.60
2024-02-22T00:07:00.393Z,13.93
2024-02-22T00:09:33.315Z,13.20
2024-02-22T00:12:06.166Z,13.78
2024-02-22T00:14:41.373Z,13.55
2024-02-22T00:17:13.633Z,10.32
2024-02-22T00:19:46.165Z,14.15
2024-02-22T00:22:18.417Z,14.10
2024-02-22T00:24:50.871Z,13.45
2024-02-22T00:27:23.431Z,13.13
2024-02-22T00:29:55.625Z,12.45
2024-02-22T00:32:28.305Z,10.88
2024-02-22T00:35:00.612Z,15.40
2024-02-22T00:37:36.793Z,14.65
2024-02-22T00:40:11.965Z,14.35
2024-02-22T00:42:47.232Z,14.65
2024-02-22T00:45:21.299Z,14.00
2024-02-22T00:47:53.683Z,13.60
2024-02-22T00:50:27.735Z,14.33
2024-02-22T00:53:00.509Z,14.07
2024-02-22T00:55:33.823Z,15.00
2024-02-22T00:58:09.557Z,14.45
2024-02-22T01:00:40.997Z,14.55
2024-02-22T01:03:13.772Z,14.23
2024-02-22T01:05:46.194Z,14.78
2024-02-22T01:08:18.821Z,14.70
2024-02-22T01:10:51.380Z,15.83
2024-02-22T01:13:23.973Z,15.65
2024-02-22T01:15:56.229Z,14.85
2024-02-22T01:18:29.425Z,14.65
2024-02-22T01:21:01.998Z,15.50
2024-02-22T01:23:34.465Z,14.33
2024-02-22T01:26:06.957Z,12.75
2024-02-22T01:28:39.273Z,14.83
2024-02-22T01:31:11.968Z,14.78
2024-02-22T01:33:48.150Z,15.05
2024-02-22T01:36:20.929Z,13.70
2024-02-22T01:38:53.428Z,14.43
2024-02-22T01:41:28.887Z,14.83
2024-02-22T01:44:00.182Z,14.38
2024-02-22T01:46:33.052Z,15.23
2024-02-22T01:49:10.664Z,14.15
2024-02-22T01:51:43.478Z,13.65
2024-02-22T01:54:16.184Z,14.38
2024-02-22T01:56:48.460Z,15.43
2024-02-22T01:59:21.788Z,14.55
2024-02-22T02:01:55.995Z,14.47
2024-02-22T02:04:29.797Z,15.43
2024-02-22T02:07:02.321Z,14.47
2024-02-22T02:09:34.771Z,14.13
2024-02-22T02:12:08.914Z,14.90
2024-02-22T02:14:41.340Z,11.35
2024-02-22T02:17:14.319Z,14.23
2024-02-22T02:19:48.318Z,13.43
2024-02-22T02:22:29.083Z,15.53
2024-02-22T02:25:06.294Z,14.78
2024-02-22T02:27:39.771Z,13.40
2024-02-22T02:30:13.028Z,10.13
2024-02-22T02:32:45.364Z,11.17
2024-02-22T02:35:18.396Z,14.28
2024-02-22T02:37:50.737Z,14.75
2024-02-22T02:40:23.281Z,14.53
2024-02-22T02:42:55.603Z,14.75
2024-02-22T02:45:28.072Z,14.80
2024-02-22T02:48:01.038Z,14.15
2024-02-22T02:50:33.536Z,12.73
2024-02-22T02:53:05.910Z,14.47
2024-02-22T02:55:38.646Z,15.53
2024-02-22T02:58:10.790Z,10.40
2024-02-22T03:00:43.143Z,15.00
2024-02-22T03:03:15.817Z,16.40
2024-02-22T03:05:49.203Z,15.05
2024-02-22T03:08:22.976Z,14.93
2024-02-22T03:13:27.753Z,15.45
2024-02-22T03:16:00.371Z,15.35
2024-02-22T03:18:35.337Z,14.87
2024-02-22T03:21:10.460Z,14.45
2024-02-22T03:23:43.005Z,15.83
2024-02-22T03:26:16.504Z,16.77
2024-02-22T03:28:49.209Z,14.93
2024-02-22T03:31:24.263Z,15.32
2024-02-22T03:33:57.389Z,15.30
2024-02-22T03:36:30.406Z,12.90
2024-02-22T03:39:05.514Z,15.65
2024-02-22T03:41:39.651Z,12.85
2024-02-22T03:44:13.128Z,11.50
2024-02-22T03:46:50.399Z,15.78
2024-02-22T03:49:22.751Z,15.43
2024-02-22T03:51:56.252Z,15.32
2024-02-22T03:54:29.026Z,15.75
2024-02-22T03:57:02.642Z,14.35
2024-02-22T04:02:08.854Z,15.38
2024-02-22T04:04:43.634Z,13.22
2024-02-22T04:07:19.941Z,16.23
2024-02-22T04:09:55.033Z,17.50
2024-02-22T04:12:28.083Z,15.38
2024-02-22T04:17:35.505Z,17.10
2024-02-22T04:20:10.560Z,16.63
2024-02-22T04:22:52.030Z,16.20
2024-02-22T04:25:26.268Z,15.68
2024-02-22T04:27:59.837Z,16.95
2024-02-22T04:30:33.172Z,14.23
2024-02-22T04:33:07.733Z,16.40
2024-02-22T04:35:42.658Z,16.37
2024-02-22T04:38:16.219Z,17.05
2024-02-22T04:40:51.584Z,17.17
2024-02-22T04:43:24.869Z,16.73
2024-02-22T04:45:58.093Z,16.93
2024-02-22T04:48:32.969Z,17.82
2024-02-22T04:51:05.924Z,17.95
2024-02-22T04:53:39.546Z,16.80
2024-02-22T04:56:14.609Z,15.48
2024-02-22T04:58:47.577Z,16.82
2024-02-22T05:01:20.709Z,14.35
2024-02-22T05:03:53.884Z,16.87
2024-02-22T05:06:27.416Z,17.52
2024-02-22T05:09:00.557Z,17.48
2024-02-22T05:11:33.404Z,16.67
2024-02-22T05:14:07.196Z,17.25
2024-02-22T05:16:40.717Z,17.17
2024-02-22T05:19:14.896Z,17.07
2024-02-22T05:21:50.555Z,17.80
2024-02-22T05:24:24.656Z,12.80
2024-02-22T05:29:30.097Z,16.42
2024-02-22T05:32:05.474Z,15.48
2024-02-22T05:34:39.659Z,16.42
2024-02-22T05:37:13.987Z,16.77
2024-02-22T05:39:47.666Z,15.23
2024-02-22T05:42:20.209Z,17.92
2024-02-22T05:44:54.079Z,15.77
2024-02-22T05:47:28.061Z,17.75
2024-02-22T05:50:01.908Z,18.37
2024-02-22T05:52:36.602Z,17.65
2024-02-22T05:57:41.300Z,16.57
2024-02-22T06:00:17.052Z,17.32
2024-02-22T06:02:50.028Z,16.42
2024-02-22T06:05:24.556Z,18.30
2024-02-22T06:07:59.458Z,18.02
2024-02-22T06:10:35.549Z,17.45
2024-02-22T06:13:09.777Z,17.07
2024-02-22T06:15:44.106Z,15.20
2024-02-22T06:18:20.459Z,14.80
2024-02-22T06:20:54.520Z,18.60
2024-02-22T06:23:29.197Z,16.27
2024-02-22T06:26:03.206Z,18.35
2024-02-22T06:28:37.188Z,19.67
2024-02-22T06:33:43.496Z,16.75
2024-02-22T06:36:18.096Z,17.90
2024-02-22T06:38:52.883Z,18.07
2024-02-22T06:41:27.331Z,15.25
2024-02-22T06:44:02.499Z,16.60
2024-02-22T06:46:35.904Z,16.87
2024-02-22T06:49:10.564Z,18.50
2024-02-22T06:51:45.473Z,17.87
2024-02-22T06:54:18.886Z,17.05
2024-02-22T06:56:51.714Z,18.30
2024-02-22T06:59:25.011Z,7.62
2024-02-22T07:01:58.316Z,15.08
2024-02-22T07:04:31.544Z,17.55
2024-02-22T07:07:05.167Z,17.03
2024-02-22T07:12:11.454Z,16.67
2024-02-22T07:14:44.995Z,16.70
2024-02-22T07:17:22.469Z,17.73
2024-02-22T07:19:59.053Z,19.87
2024-02-22T07:22:35.074Z,17.00
2024-02-22T07:25:12.025Z,17.20
2024-02-22T07:27:45.380Z,17.52
2024-02-22T07:30:18.965Z,17.13
2024-02-22T07:32:53.968Z,15.98
2024-02-22T07:35:30.181Z,17.15
2024-02-22T07:40:35.488Z,16.87
2024-02-22T07:43:08.756Z,17.90
2024-02-22T07:45:45.366Z,17.30
2024-02-22T07:48:19.011Z,17.48
2024-02-22T07:50:51.970Z,17.67
2024-02-22T07:53:25.452Z,17.57
2024-02-22T07:55:58.900Z,15.43
2024-02-22T07:58:33.565Z,17.40
2024-02-22T08:01:07.402Z,19.62
2024-02-22T08:03:40.232Z,17.67
2024-02-22T08:06:13.887Z,17.42
2024-02-22T08:08:47.816Z,15.83
2024-02-22T08:11:22.516Z,13.62
2024-02-22T08:13:56.554Z,17.92
2024-02-22T08:16:30.705Z,16.87
2024-02-22T08:19:05.700Z,19.50
2024-02-22T08:21:39.031Z,17.67
2024-02-22T08:24:14.731Z,19.00
2024-02-22T08:26:48.337Z,16.80
2024-02-22T08:29:22.576Z,17.23
2024-02-22T08:31:58.729Z,18.70
2024-02-22T08:34:32.170Z,17.73
2024-02-22T08:39:38.135Z,16.57
2024-02-22T08:42:11.787Z,17.60
2024-02-22T08:44:45.828Z,18.25
2024-02-22T08:47:20.265Z,17.92
2024-02-22T08:49:54.789Z,15.45
2024-02-22T08:52:28.537Z,19.70
2024-02-22T08:55:03.167Z,17.10
2024-02-22T09:00:12.016Z,18.10
2024-02-22T09:02:46.211Z,19.02
2024-02-22T09:05:18.977Z,17.48
2024-02-22T09:07:53.703Z,17.10
2024-02-22T09:10:27.637Z,25.90
2024-02-22T09:13:00.938Z,17.90
2024-02-22T09:15:33.880Z,17.10
2024-02-22T09:18:07.723Z,14.28
2024-02-22T09:20:40.466Z,18.30
2024-02-22T09:23:15.016Z,17.90
2024-02-22T09:25:48.136Z,17.67
2024-02-22T09:28:21.717Z,20.23
2024-02-22T09:30:55.004Z,18.32
2024-02-22T09:33:29.604Z,17.92
2024-02-22T09:36:02.405Z,18.35
2024-02-22T09:38:36.103Z,16.82
2024-02-22T09:43:46.010Z,18.02
2024-02-22T09:46:20.715Z,19.77
2024-02-22T09:48:55.564Z,18.07
2024-02-22T09:51:29.764Z,18.00
2024-02-22T09:54:03.964Z,18.02
2024-02-22T09:56:40.148Z,18.60
2024-02-22T09:59:18.517Z,18.75
2024-02-22T10:01:52.136Z,18.30
2024-02-22T10:04:26.908Z,18.65
2024-02-22T10:07:05.442Z,18.15
2024-02-22T10:09:46.590Z,18.50
2024-02-22T10:12:28.960Z,18.20
2024-02-22T10:15:06.937Z,17.73
2024-02-22T10:17:41.268Z,18.17
2024-02-22T10:20:13.933Z,18.32
2024-02-22T10:22:48.741Z,17.90
2024-02-22T10:25:22.309Z,17.57
2024-02-22T10:27:55.578Z,16.87
2024-02-22T10:30:30.867Z,18.10
2024-02-22T10:33:04.886Z,16.67
2024-02-22T10:35:39.308Z,19.52
2024-02-22T10:38:12.979Z,17.55
2024-02-22T10:40:50.489Z,17.50
2024-02-22T10:43:25.888Z,18.10
2024-02-22T10:46:04.999Z,17.80
2024-02-22T10:48:40.482Z,16.90
2024-02-22T10:51:15.264Z,19.57
2024-02-22T10:53:54.970Z,18.00
2024-02-22T10:56:32.260Z,18.90
2024-02-22T10:59:10.516Z,19.57
2024-02-22T11:01:46.159Z,18.95
2024-02-22T11:04:20.247Z,18.67
2024-02-22T11:06:53.402Z,19.23
2024-02-22T11:09:26.992Z,19.77
2024-02-22T11:12:03.086Z,18.25
2024-02-22T11:14:40.734Z,11.45
2024-02-22T11:17:21.513Z,18.32
2024-02-22T11:19:55.689Z,16.87
2024-02-22T11:22:32.019Z,18.23
2024-02-22T11:25:09.013Z,17.87
2024-02-22T11:27:43.747Z,16.90
2024-02-22T11:30:18.185Z,16.82
2024-02-22T11:32:54.013Z,19.10
2024-02-22T11:35:29.374Z,18.32
2024-02-22T11:38:07.659Z,18.92
2024-02-22T11:40:41.062Z,17.90
2024-02-22T11:43:15.088Z,17.57
2024-02-22T11:45:49.616Z,17.65
2024-02-22T11:48:24.200Z,18.00
2024-02-22T11:53:30.781Z,17.20
2024-02-22T11:56:03.965Z,17.20
2024-02-22T11:58:39.137Z,18.50
2024-02-22T12:01:12.126Z,17.57
2024-02-22T12:03:48.103Z,19.23
2024-02-22T12:06:22.981Z,18.02
2024-02-22T12:08:57.388Z,15.80
2024-02-22T12:14:06.470Z,14.20
2024-02-22T12:16:41.375Z,17.25
2024-02-22T12:19:22.035Z,16.30
2024-02-22T12:21:55.845Z,15.60
2024-02-22T12:24:30.310Z,15.95
2024-02-22T12:27:05.194Z,14.28
2024-02-22T12:29:39.151Z,16.07
2024-02-22T12:32:13.899Z,14.33
2024-02-22T12:34:47.486Z,14.58
2024-02-22T12:37:21.056Z,16.00
2024-02-22T12:39:54.300Z,14.95
2024-02-22T12:42:27.815Z,16.50
2024-02-22T12:45:00.936Z,15.18
2024-02-22T12:47:35.258Z,16.32
2024-02-22T12:50:09.398Z,15.13
2024-02-22T12:52:42.364Z,11.90
2024-02-22T12:55:15.595Z,14.78
2024-02-22T12:57:51.113Z,14.65
2024-02-22T13:00:25.249Z,13.15
2024-02-22T13:02:59.689Z,14.28
2024-02-22T13:05:32.508Z,13.05
2024-02-22T13:08:12.904Z,13.90
2024-02-22T13:10:41.075Z,12.78
2024-02-22T13:13:15.701Z,13.68
2024-02-22T13:15:49.906Z,14.70
2024-02-22T13:18:22.703Z,12.55
2024-02-22T13:20:56.621Z,12.10
2024-02-22T13:23:30.465Z,12.90
2024-02-22T13:26:10.350Z,12.82
2024-02-22T13:28:42.510Z,13.25
2024-02-22T13:31:15.607Z,11.50
2024-02-22T13:33:50.063Z,12.33
2024-02-22T13:36:23.076Z,12.78
2024-02-22T13:38:56.089Z,14.05
2024-02-22T13:41:31.040Z,15.20
2024-02-22T13:44:11.613Z,13.43
2024-02-22T13:46:40.033Z,13.20
2024-02-22T13:51:48.589Z,13.30
2024-02-22T13:54:21.593Z,12.68
2024-02-22T13:56:55.945Z,13.18
2024-02-22T13:59:30.308Z,11.97
2024-02-22T14:02:05.461Z,10.08
2024-02-22T14:04:38.900Z,12.18
2024-02-22T14:07:11.867Z,12.80
2024-02-22T14:09:45.037Z,12.20
2024-02-22T14:12:18.276Z,13.25
2024-02-22T14:14:51.282Z,11.80
2024-02-22T14:17:26.320Z,12.13
2024-02-22T14:19:59.833Z,11.83
2024-02-22T14:22:33.743Z,12.63
2024-02-22T14:25:08.494Z,11.93
2024-02-22T14:27:42.250Z,12.65
2024-02-22T14:30:17.819Z,12.05
2024-02-22T14:32:52.049Z,13.05
2024-02-22T14:35:25.107Z,13.62
2024-02-22T14:40:52.017Z,13.00
2024-02-22T14:43:23.760Z,13.32
2024-02-22T14:45:56.952Z,12.58
2024-02-22T14:48:29.857Z,12.40
2024-02-22T14:51:02.768Z,13.62
2024-02-22T14:53:38.132Z,14.45
2024-02-22T14:56:12.697Z,13.48
2024-02-22T14:58:50.552Z,11.95
2024-02-22T15:01:26.446Z,14.00
2024-02-22T15:03:59.619Z,14.43
2024-02-22T15:06:32.822Z,13.28
2024-02-22T15:09:06.955Z,13.50
2024-02-22T15:11:40.557Z,9.95
2024-02-22T15:14:14.456Z,14.30
2024-02-22T15:16:48.384Z,8.38
2024-02-22T15:19:21.950Z,11.12
2024-02-22T15:21:56.140Z,13.45
2024-02-22T15:24:30.352Z,13.95
2024-02-22T15:27:04.960Z,12.75
2024-02-22T15:29:39.507Z,8.90
2024-02-22T15:32:13.115Z,15.50
2024-02-22T15:34:48.046Z,15.35
2024-02-22T15:37:22.598Z,14.45
2024-02-22T15:39:57.574Z,14.90
2024-02-22T15:42:31.356Z,12.13
2024-02-22T15:45:05.273Z,14.53
2024-02-22T15:47:38.302Z,15.32
2024-02-22T15:50:12.374Z,14.55
2024-02-22T15:52:45.440Z,14.05
2024-02-22T15:55:18.667Z,14.85
2024-02-22T15:57:51.676Z,14.18
2024-02-22T16:00:25.790Z,15.23
2024-02-22T16:02:59.123Z,11.67
2024-02-22T16:05:34.278Z,14.63
2024-02-22T16:08:08.930Z,14.07
2024-02-22T16:10:42.831Z,13.78
2024-02-22T16:13:16.804Z,12.85
2024-02-22T16:15:50.900Z,14.70
2024-02-22T16:18:25.860Z,14.83
2024-02-22T16:20:58.795Z,13.35
2024-02-22T16:23:33.156Z,14.83
2024-02-22T16:26:06.350Z,14.58
2024-02-22T16:31:13.654Z,13.60
2024-02-22T16:33:47.152Z,15.48
2024-02-22T16:36:20.603Z,14.75
2024-02-22T16:38:58.927Z,15.65
2024-02-22T16:41:32.169Z,12.93
2024-02-22T16:44:08.952Z,14.20
2024-02-22T16:46:47.790Z,14.55
2024-02-22T16:49:23.527Z,9.40
2024-02-22T16:51:57.897Z,13.98
2024-02-22T16:54:31.816Z,14.87
2024-02-22T16:57:08.493Z,13.80
2024-02-22T16:59:43.748Z,13.80
2024-02-22T17:02:17.985Z,14.00
2024-02-22T17:04:51.076Z,13.22
2024-02-22T17:07:24.019Z,13.63
2024-02-22T17:12:31.403Z,12.63
2024-02-22T17:15:07.149Z,12.33
2024-02-22T17:17:43.865Z,13.75
2024-02-22T17:20:19.178Z,9.13
2024-02-22T17:22:54.284Z,12.50
2024-02-22T17:25:28.153Z,12.95
2024-02-22T17:28:01.732Z,12.50
2024-02-22T17:30:35.437Z,13.55
2024-02-22T17:33:08.776Z,15.83
2024-02-22T17:35:42.902Z,13.78
2024-02-22T17:38:16.395Z,12.78
2024-02-22T17:40:51.190Z,11.43
2024-02-22T17:43:23.794Z,11.18
2024-02-22T17:45:57.225Z,13.40
2024-02-22T17:48:31.124Z,12.82
2024-02-22T17:51:03.930Z,13.25
2024-02-22T17:53:38.195Z,14.50
2024-02-22T17:56:11.182Z,14.47
2024-02-22T17:58:51.645Z,13.80
2024-02-22T18:01:20.378Z,12.73
2024-02-22T18:03:53.884Z,10.15
2024-02-22T18:06:26.786Z,13.32
2024-02-22T18:08:59.151Z,12.73
2024-02-22T18:11:32.686Z,10.18
2024-02-22T18:14:05.223Z,13.85
2024-02-22T18:16:38.224Z,13.50
2024-02-22T18:19:10.842Z,13.88
2024-02-22T18:21:43.372Z,13.35
2024-02-22T18:24:16.643Z,13.28
2024-02-22T18:26:49.982Z,13.45
2024-02-22T18:29:24.689Z,7.85
2024-02-22T18:31:57.761Z,13.03
2024-02-22T18:34:30.120Z,14.23
2024-02-22T18:37:03.705Z,12.05
2024-02-22T18:39:36.475Z,13.78
2024-02-22T18:42:09.182Z,12.55
2024-02-22T18:44:44.081Z,11.08
2024-02-22T18:47:16.535Z,13.98
2024-02-22T18:49:49.265Z,13.53
2024-02-22T18:52:24.686Z,13.80
2024-02-22T18:54:56.469Z,12.80
2024-02-22T18:57:29.151Z,11.88
2024-02-22T19:00:01.898Z,13.50
2024-02-22T19:02:35.392Z,15.30
2024-02-22T19:05:09.407Z,14.47
2024-02-22T19:07:42.753Z,11.30
2024-02-22T19:10:17.041Z,13.72
2024-02-22T19:12:50.089Z,12.45
2024-02-22T19:15:22.610Z,12.07
2024-02-22T19:17:56.017Z,13.62
2024-02-22T19:20:28.854Z,13.88
2024-02-22T19:23:01.514Z,14.18
2024-02-22T19:25:33.916Z,14.35
2024-02-22T19:28:07.390Z,12.55
2024-02-22T19:30:41.968Z,14.38
2024-02-22T19:33:17.472Z,14.93
2024-02-22T19:35:49.552Z,15.50
2024-02-22T19:38:22.418Z,15.63
2024-02-22T19:40:56.932Z,15.38
2024-02-22T19:43:30.135Z,12.00
2024-02-22T19:46:04.236Z,15.05
2024-02-22T19:48:37.966Z,15.18
2024-02-22T19:53:42.594Z,15.35
2024-02-22T19:56:15.135Z,14.55
2024-02-22T19:58:50.995Z,15.30
2024-02-22T20:01:23.398Z,16.48
2024-02-22T20:03:58.947Z,14.80
2024-02-22T20:06:32.262Z,15.53
2024-02-22T20:09:04.964Z,15.90
2024-02-22T20:11:39.054Z,12.35
2024-02-22T20:14:11.821Z,16.42
2024-02-22T20:16:44.392Z,16.52
2024-02-22T20:19:17.770Z,14.00
2024-02-22T20:21:50.535Z,16.42
2024-02-22T20:24:23.358Z,15.68
2024-02-22T20:26:56.001Z,16.02
2024-02-22T20:29:28.853Z,16.75
2024-02-22T20:32:03.225Z,16.53
2024-02-22T20:37:07.912Z,16.00
2024-02-22T20:39:40.971Z,16.90
2024-02-22T20:42:17.879Z,16.37
2024-02-22T20:44:52.186Z,16.52
2024-02-22T20:47:26.344Z,16.07
2024-02-22T20:52:30.799Z,14.65
2024-02-22T20:55:04.374Z,17.23
2024-02-22T20:57:36.654Z,10.30
2024-02-22T21:00:12.683Z,17.90
2024-02-22T21:02:44.917Z,16.35
2024-02-22T21:05:17.602Z,14.30
2024-02-22T21:07:50.234Z,15.78
2024-02-22T21:10:23.637Z,11.05
2024-02-22T21:12:55.919Z,16.17
2024-02-22T21:15:30.373Z,17.52
2024-02-22T21:18:04.251Z,15.20
2024-02-22T21:23:08.692Z,16.65
2024-02-22T21:25:41.641Z,16.27
2024-02-22T21:28:19.017Z,16.02
2024-02-22T21:30:52.761Z,16.32
2024-02-22T21:33:26.963Z,16.55
2024-02-22T21:36:00.311Z,16.67
2024-02-22T21:38:34.463Z,13.08
2024-02-22T21:41:09.649Z,15.53
2024-02-22T21:43:43.088Z,12.58
2024-02-22T21:46:16.789Z,17.82
2024-02-22T21:48:49.342Z,16.62
2024-02-22T21:51:21.860Z,13.88
2024-02-22T21:53:54.723Z,16.55
2024-02-22T21:56:29.290Z,13.40
2024-02-22T21:59:01.640Z,13.35
2024-02-22T22:04:24.196Z,16.62
2024-02-22T22:06:56.609Z,16.48
2024-02-22T22:09:29.771Z,16.57
2024-02-22T22:12:02.450Z,17.77
2024-02-22T22:14:35.289Z,17.48
2024-02-22T22:17:08.436Z,17.32
2024-02-22T22:19:40.622Z,18.07
2024-02-22T22:22:13.197Z,15.75
2024-02-22T22:24:45.921Z,16.67
2024-02-22T22:27:19.008Z,16.60
2024-02-22T22:29:51.260Z,16.25
2024-02-22T22:32:24.611Z,18.40
2024-02-22T22:34:57.269Z,18.37
2024-02-22T22:37:30.655Z,17.50
2024-02-22T22:40:03.670Z,18.25
2024-02-22T22:42:35.975Z,13.28
2024-02-22T22:45:09.034Z,16.97
2024-02-22T22:47:41.578Z,14.77
2024-02-22T22:50:14.650Z,15.60
2024-02-22T22:52:47.298Z,17.62
2024-02-22T22:55:19.618Z,11.78
2024-02-22T22:57:51.959Z,18.07
2024-02-22T23:00:26.096Z,17.20
2024-02-22T23:02:59.246Z,16.95
2024-02-22T23:05:32.558Z,17.57
2024-02-22T23:08:05.421Z,17.05
2024-02-22T23:10:37.673Z,16.15
2024-02-22T23:13:09.999Z,17.05
2024-02-22T23:15:43.709Z,16.87
2024-02-22T23:18:16.236Z,12.43
2024-02-22T23:20:48.645Z,17.42
2024-02-22T23:23:20.949Z,17.42
2024-02-22T23:25:54.061Z,15.38
2024-02-22T23:28:26.772Z,16.48
2024-02-22T23:30:59.165Z,17.90
2024-02-22T23:33:31.994Z,18.65
2024-02-22T23:36:04.851Z,17.87
2024-02-22T23:38:38.810Z,16.37
2024-02-22T23:41:22.092Z,17.20
2024-02-22T23:43:44.899Z,16.82
2024-02-22T23:46:17.231Z,10.50
2024-02-22T23:48:49.788Z,17.45
2024-02-22T23:53:54.971Z,17.17
2024-02-22T23:56:28.163Z,16.20
2024-02-22T23:59:01.206Z,15.48
